createdAt,value
2018-12-16T00:00:37.598Z,7.8
2018-12-16T00:01:39.207Z,7.8
2018-12-16T00:02:40.734Z,7.9
2018-12-16T00:03:42.260Z,7.9
2018-12-16T00:04:51.433Z,7.9
2018-12-16T00:05:52.985Z,7.9
2018-12-16T00:06:54.372Z,7.9
2018-12-16T00:07:56.144Z,7.9
2018-12-16T00:08:57.691Z,7.9
2018-12-16T00:09:59.232Z,7.9
2018-12-16T00:11:00.804Z,7.9
2018-12-16T00:12:02.375Z,7.9
2018-12-16T00:13:03.955Z,7.9
2018-12-16T00:14:05.528Z,7.9
2018-12-16T00:15:07.093Z,7.8
2018-12-16T00:16:08.618Z,7.8
2018-12-16T00:17:09.838Z,7.8
2018-12-16T00:18:11.364Z,7.8
2018-12-16T00:19:12.892Z,7.8
2018-12-16T00:20:14.264Z,7.8
2018-12-16T00:21:15.489Z,7.8
2018-12-16T00:22:16.703Z,7.8
2018-12-16T00:23:18.080Z,7.8
2018-12-16T00:24:19.627Z,7.8
2018-12-16T00:25:20.844Z,7.8
2018-12-16T00:26:22.060Z,7.8
2018-12-16T00:27:23.436Z,7.8
2018-12-16T00:28:24.823Z,7.8
2018-12-16T00:29:26.268Z,7.9
2018-12-16T00:30:27.794Z,7.9
2018-12-16T00:31:29.157Z,7.9
2018-12-16T00:32:30.714Z,7.9
2018-12-16T00:33:32.243Z,7.9
2018-12-16T00:34:33.617Z,7.9
2018-12-16T00:35:35.002Z,7.9
2018-12-16T00:36:36.391Z,7.9
2018-12-16T00:37:37.918Z,7.9
2018-12-16T00:38:39.141Z,7.8
2018-12-16T00:39:40.344Z,7.8
2018-12-16T00:40:41.819Z,7.8
2018-12-16T00:41:43.048Z,7.8
2018-12-16T00:42:44.605Z,7.8
2018-12-16T00:43:46.142Z,7.8
2018-12-16T00:44:47.701Z,7.8
2018-12-16T00:45:49.072Z,7.8
2018-12-16T00:46:50.529Z,7.8
2018-12-16T00:47:51.899Z,7.8
2018-12-16T00:48:53.416Z,7.8
2018-12-16T00:49:54.976Z,7.8
2018-12-16T00:50:56.052Z,7.8
2018-12-16T00:51:57.423Z,7.8
2018-12-16T00:52:58.943Z,7.8
2018-12-16T00:54:00.490Z,7.8
2018-12-16T00:55:02.055Z,7.8
2018-12-16T00:56:03.606Z,7.8
2018-12-16T00:57:05.160Z,7.8
2018-12-16T00:58:06.697Z,7.7
2018-12-16T00:59:08.223Z,7.7
2018-12-16T01:00:09.733Z,7.7
2018-12-16T01:01:11.104Z,7.7
2018-12-16T01:02:12.501Z,7.7
2018-12-16T01:03:13.743Z,7.7
2018-12-16T01:04:15.139Z,7.7
2018-12-16T01:05:16.644Z,7.8
2018-12-16T01:06:17.863Z,7.8
2018-12-16T01:07:19.262Z,7.8
2018-12-16T01:08:20.787Z,7.8
2018-12-16T01:09:22.313Z,7.8
2018-12-16T01:10:23.541Z,7.8
2018-12-16T01:11:25.077Z,7.8
2018-12-16T01:12:26.612Z,7.8
2018-12-16T01:13:27.989Z,7.8
2018-12-16T01:14:29.367Z,7.8
2018-12-16T01:15:30.766Z,7.8
2018-12-16T01:16:32.311Z,7.8
2018-12-16T01:17:33.851Z,7.8
2018-12-16T01:18:35.382Z,7.8
2018-12-16T01:19:36.932Z,7.8
2018-12-16T01:20:38.462Z,7.8
2018-12-16T01:21:39.989Z,7.8
2018-12-16T01:22:45.024Z,7.8
2018-12-16T01:23:46.547Z,7.7
2018-12-16T01:24:47.921Z,7.7
2018-12-16T01:25:49.296Z,7.7
2018-12-16T01:26:50.691Z,7.7
2018-12-16T01:27:51.912Z,7.7
2018-12-16T01:28:53.461Z,7.7
2018-12-16T01:29:54.855Z,7.7
2018-12-16T01:30:56.391Z,7.7
2018-12-16T01:31:57.760Z,7.7
2018-12-16T01:32:59.153Z,7.7
2018-12-16T01:34:00.674Z,7.7
2018-12-16T01:35:02.032Z,7.7
2018-12-16T01:36:03.545Z,7.8
2018-12-16T01:37:05.114Z,7.8
2018-12-16T01:38:06.684Z,7.8
2018-12-16T01:39:08.235Z,7.8
2018-12-16T01:40:09.764Z,7.8
2018-12-16T01:41:11.281Z,7.8
2018-12-16T01:42:12.497Z,7.8
2018-12-16T01:43:13.705Z,7.8
2018-12-16T01:44:14.903Z,7.8
2018-12-16T01:45:16.434Z,7.8
2018-12-16T01:46:17.953Z,7.8
2018-12-16T01:47:19.511Z,7.8
2018-12-16T01:48:20.905Z,7.7
2018-12-16T01:49:22.276Z,7.7
2018-12-16T01:50:23.632Z,7.7
2018-12-16T01:51:25.186Z,7.6
2018-12-16T01:52:26.564Z,7.6
2018-12-16T01:53:27.932Z,7.5
2018-12-16T01:54:29.367Z,7.5
2018-12-16T01:55:30.932Z,7.5
2018-12-16T01:56:32.320Z,7.5
2018-12-16T01:57:33.682Z,7.5
2018-12-16T01:58:34.896Z,7.5
2018-12-16T01:59:36.417Z,7.5
2018-12-16T02:00:37.802Z,7.5
2018-12-16T02:01:39.173Z,7.5
2018-12-16T02:02:40.535Z,7.6
2018-12-16T02:03:42.112Z,7.6
2018-12-16T02:04:43.471Z,7.5
2018-12-16T02:05:44.998Z,7.5
2018-12-16T02:06:46.203Z,7.4
2018-12-16T02:07:47.728Z,7.2
2018-12-16T02:08:48.932Z,7.2
2018-12-16T02:09:50.503Z,7.1
2018-12-16T02:10:52.034Z,7.1
2018-12-16T02:11:53.414Z,7.2
2018-12-16T02:12:54.780Z,7.1
2018-12-16T02:13:56.160Z,7.2
2018-12-16T02:14:57.678Z,7.1
2018-12-16T02:15:59.219Z,7.2
2018-12-16T02:17:00.757Z,7.2
2018-12-16T02:18:02.290Z,7.2
2018-12-16T02:19:03.820Z,7.2
2018-12-16T02:20:05.588Z,7.2
2018-12-16T02:21:06.978Z,7.2
2018-12-16T02:22:08.504Z,7.2
2018-12-16T02:23:09.718Z,7.1
2018-12-16T02:24:11.085Z,7.2
2018-12-16T02:25:12.690Z,7.1
2018-12-16T02:26:14.203Z,7.1
2018-12-16T02:27:15.583Z,7.1
2018-12-16T02:28:16.943Z,7.1
2018-12-16T02:29:18.310Z,7.2
2018-12-16T02:30:19.842Z,7.1
2018-12-16T02:31:21.398Z,7.2
2018-12-16T02:32:22.632Z,7.1
2018-12-16T02:33:24.011Z,7.2
2018-12-16T02:34:25.521Z,7.2
2018-12-16T02:35:27.079Z,7.2
2018-12-16T02:36:28.629Z,7.1
2018-12-16T02:37:30.173Z,7.1
2018-12-16T02:38:31.693Z,7.2
2018-12-16T02:39:32.929Z,7.1
2018-12-16T02:40:34.463Z,7.1
2018-12-16T02:41:36.024Z,7.1
2018-12-16T02:42:37.535Z,7.1
2018-12-16T02:43:39.091Z,7.1
2018-12-16T02:44:40.619Z,7.1
2018-12-16T02:45:41.984Z,7.2
2018-12-16T02:46:43.511Z,7.1
2018-12-16T02:47:45.041Z,7.1
2018-12-16T02:48:46.437Z,7.2
2018-12-16T02:49:47.993Z,7.2
2018-12-16T02:50:49.400Z,7.2
2018-12-16T02:51:50.795Z,7.2
2018-12-16T02:52:52.033Z,7.2
2018-12-16T02:53:53.562Z,7.2
2018-12-16T02:54:55.093Z,7.2
2018-12-16T02:55:56.625Z,7.2
2018-12-16T02:56:57.872Z,7.2
2018-12-16T02:57:59.423Z,7.2
2018-12-16T02:59:00.943Z,7.2
2018-12-16T03:00:02.493Z,7.2
2018-12-16T03:01:04.090Z,7.2
2018-12-16T03:02:05.652Z,7.2
2018-12-16T03:03:07.204Z,7.2
2018-12-16T03:04:08.742Z,7.2
2018-12-16T03:05:10.273Z,7.2
2018-12-16T03:06:11.858Z,7.3
2018-12-16T03:07:13.243Z,7.3
2018-12-16T03:08:14.771Z,7.4
2018-12-16T03:09:16.153Z,7.4
2018-12-16T03:10:17.355Z,7.5
2018-12-16T03:11:18.916Z,7.5
2018-12-16T03:12:20.453Z,7.5
2018-12-16T03:13:22.015Z,7.6
2018-12-16T03:14:23.391Z,7.6
2018-12-16T03:15:24.911Z,7.7
2018-12-16T03:16:26.325Z,7.7
2018-12-16T03:17:27.854Z,7.7
2018-12-16T03:18:29.251Z,7.7
2018-12-16T03:19:30.804Z,7.7
2018-12-16T03:20:32.359Z,7.8
2018-12-16T03:21:33.904Z,7.8
2018-12-16T03:22:35.319Z,7.8
2018-12-16T03:23:36.694Z,7.8
2018-12-16T03:24:38.246Z,7.8
2018-12-16T03:25:39.764Z,7.9
2018-12-16T03:26:41.165Z,7.9
2018-12-16T03:27:42.712Z,7.9
2018-12-16T03:28:44.218Z,7.9
2018-12-16T03:29:45.756Z,7.9
2018-12-16T03:30:47.504Z,7.8
2018-12-16T03:31:49.196Z,7.8
2018-12-16T03:32:50.804Z,7.8
2018-12-16T03:33:52.429Z,7.8
2018-12-16T03:34:53.965Z,7.8
2018-12-16T03:35:55.499Z,7.8
2018-12-16T03:36:57.044Z,7.8
2018-12-16T03:37:58.461Z,7.8
2018-12-16T03:38:59.715Z,7.8
2018-12-16T03:40:01.128Z,7.8
2018-12-16T03:41:02.359Z,7.8
2018-12-16T03:42:03.902Z,7.8
2018-12-16T03:43:05.282Z,7.7
2018-12-16T03:44:06.669Z,7.7
2018-12-16T03:45:08.229Z,7.7
2018-12-16T03:46:09.783Z,7.7
2018-12-16T03:47:11.179Z,7.7
2018-12-16T03:48:12.706Z,7.7
2018-12-16T03:49:14.238Z,7.7
2018-12-16T03:50:15.752Z,7.6
2018-12-16T03:51:17.133Z,7.6
2018-12-16T03:52:18.673Z,7.6
2018-12-16T03:53:21.771Z,7.6
2018-12-16T03:54:22.999Z,7.6
2018-12-16T03:55:24.545Z,7.6
2018-12-16T03:56:26.104Z,7.6
2018-12-16T03:57:27.475Z,7.6
2018-12-16T03:58:28.715Z,7.6
2018-12-16T03:59:29.940Z,7.5
2018-12-16T04:00:31.508Z,7.5
2018-12-16T04:01:32.723Z,7.5
2018-12-16T04:02:34.091Z,7.5
2018-12-16T04:03:35.313Z,7.5
2018-12-16T04:04:36.837Z,7.5
2018-12-16T04:05:38.038Z,7.5
2018-12-16T04:06:39.564Z,7.5
2018-12-16T04:07:41.116Z,7.6
2018-12-16T04:08:42.342Z,7.5
2018-12-16T04:09:43.767Z,7.5
2018-12-16T04:10:45.294Z,7.5
2018-12-16T04:11:46.842Z,7.4
2018-12-16T04:12:48.229Z,7.3
2018-12-16T04:13:49.603Z,7.2
2018-12-16T04:14:50.998Z,7.2
2018-12-16T04:15:52.524Z,7.2
2018-12-16T04:16:53.925Z,7.2
2018-12-16T04:17:55.450Z,7.2
2018-12-16T04:18:56.834Z,7.2
2018-12-16T04:19:58.221Z,7.2
2018-12-16T04:20:59.750Z,7.2
2018-12-16T04:22:01.133Z,7.2
2018-12-16T04:23:02.682Z,7.2
2018-12-16T04:24:04.214Z,7.2
2018-12-16T04:25:05.745Z,7.2
2018-12-16T04:26:07.283Z,7.2
2018-12-16T04:27:08.804Z,7.2
2018-12-16T04:28:10.980Z,7.2
2018-12-16T04:29:12.207Z,7.2
2018-12-16T04:30:13.775Z,7.2
2018-12-16T04:31:15.150Z,7.2
2018-12-16T04:32:16.564Z,7.2
2018-12-16T04:33:18.083Z,7.3
2018-12-16T04:34:19.456Z,7.3
2018-12-16T04:35:20.996Z,7.4
2018-12-16T04:36:22.389Z,7.4
2018-12-16T04:37:23.945Z,7.5
2018-12-16T04:38:25.488Z,7.6
2018-12-16T04:39:26.734Z,7.7
2018-12-16T04:40:28.277Z,7.8
2018-12-16T04:41:29.825Z,7.8
2018-12-16T04:42:31.352Z,7.9
2018-12-16T04:43:32.770Z,7.9
2018-12-16T04:44:34.399Z,7.9
2018-12-16T04:45:35.762Z,7.9
2018-12-16T04:46:36.819Z,7.9
2018-12-16T04:47:38.347Z,7.9
2018-12-16T04:48:39.739Z,7.9
2018-12-16T04:49:40.824Z,7.9
2018-12-16T04:50:42.391Z,7.9
2018-12-16T04:51:43.642Z,7.9
2018-12-16T04:52:45.180Z,7.9
2018-12-16T04:53:46.735Z,7.9
2018-12-16T04:54:48.134Z,7.2
2018-12-16T04:55:49.664Z,7.3
2018-12-16T04:56:51.200Z,7.3
2018-12-16T04:57:52.760Z,7.4
2018-12-16T04:58:54.336Z,7.4
2018-12-16T04:59:55.799Z,7.5
2018-12-16T05:00:57.337Z,7.5
2018-12-16T05:01:58.909Z,7.6
2018-12-16T05:03:00.450Z,7.6
2018-12-16T05:04:01.752Z,7.6
2018-12-16T05:05:03.283Z,7.7
2018-12-16T05:06:04.833Z,7.7
2018-12-16T05:07:06.233Z,7.7
2018-12-16T05:08:07.766Z,7.8
2018-12-16T05:09:09.151Z,7.8
2018-12-16T05:10:10.691Z,7.8
2018-12-16T05:11:12.242Z,7.8
2018-12-16T05:12:13.615Z,7.8
2018-12-16T05:13:15.152Z,7.8
2018-12-16T05:14:16.518Z,7.8
2018-12-16T05:15:17.732Z,7.8
2018-12-16T05:16:19.278Z,7.8
2018-12-16T05:17:20.800Z,7.8
2018-12-16T05:18:22.007Z,7.8
2018-12-16T05:19:23.547Z,7.8
2018-12-16T05:20:25.084Z,7.8
2018-12-16T05:21:26.611Z,7.8
2018-12-16T05:22:27.984Z,7.8
2018-12-16T05:23:29.503Z,7.8
2018-12-16T05:24:31.024Z,7.8
2018-12-16T05:25:33.018Z,7.8
2018-12-16T05:26:34.386Z,7.8
2018-12-16T05:27:35.952Z,7.8
2018-12-16T05:28:37.495Z,7.7
2018-12-16T05:29:39.028Z,7.7
2018-12-16T05:30:40.556Z,7.7
2018-12-16T05:31:41.938Z,7.7
2018-12-16T05:32:43.311Z,7.7
2018-12-16T05:33:44.695Z,7.6
2018-12-16T05:34:46.217Z,7.6
2018-12-16T05:35:47.592Z,7.7
2018-12-16T05:36:48.976Z,7.7
2018-12-16T05:37:50.378Z,7.7
2018-12-16T05:38:51.921Z,7.7
2018-12-16T05:39:53.442Z,7.7
2018-12-16T05:40:54.964Z,7.7
2018-12-16T05:41:56.488Z,7.7
2018-12-16T05:42:57.865Z,7.7
2018-12-16T05:43:59.232Z,7.7
2018-12-16T05:45:00.746Z,7.7
2018-12-16T05:46:02.268Z,7.7
2018-12-16T05:47:03.799Z,7.8
2018-12-16T05:48:05.190Z,7.8
2018-12-16T05:49:06.726Z,7.8
2018-12-16T05:50:08.241Z,7.8
2018-12-16T05:51:09.783Z,7.8
2018-12-16T05:52:11.307Z,7.7
2018-12-16T05:53:12.823Z,7.7
2018-12-16T05:54:14.344Z,7.6
2018-12-16T05:55:15.863Z,7.5
2018-12-16T05:56:17.225Z,7.4
2018-12-16T05:57:18.594Z,7.2
2018-12-16T05:58:20.110Z,7.2
2018-12-16T05:59:21.622Z,7.2
2018-12-16T06:00:23.141Z,7.2
2018-12-16T06:01:24.517Z,7.2
2018-12-16T06:02:25.876Z,7.2
2018-12-16T06:03:27.235Z,7.1
2018-12-16T06:04:28.762Z,7.1
2018-12-16T06:05:30.288Z,7.2
2018-12-16T06:06:31.491Z,7.1
2018-12-16T06:07:32.867Z,7.1
2018-12-16T06:08:33.929Z,7.2
2018-12-16T06:09:35.466Z,7.2
2018-12-16T06:10:36.822Z,7.2
2018-12-16T06:11:38.329Z,7.2
2018-12-16T06:12:39.725Z,7.2
2018-12-16T06:13:41.246Z,7.2
2018-12-16T06:14:42.682Z,7.2
2018-12-16T06:15:44.216Z,7.2
2018-12-16T06:16:45.591Z,7.2
2018-12-16T06:17:47.119Z,7.3
2018-12-16T06:18:48.633Z,7.3
2018-12-16T06:19:50.163Z,7.4
2018-12-16T06:20:51.692Z,7.5
2018-12-16T06:21:53.229Z,7.6
2018-12-16T06:22:54.613Z,7.7
2018-12-16T06:23:57.216Z,7.7
2018-12-16T06:24:58.592Z,7.7
2018-12-16T06:25:59.956Z,7.8
2018-12-16T06:27:01.476Z,7.8
2018-12-16T06:28:02.858Z,7.8
2018-12-16T06:29:04.211Z,7.8
2018-12-16T06:30:05.748Z,7.9
2018-12-16T06:31:07.261Z,7.9
2018-12-16T06:32:08.901Z,7.9
2018-12-16T06:33:10.272Z,7.9
2018-12-16T06:34:11.646Z,7.9
2018-12-16T06:35:13.020Z,7.9
2018-12-16T06:36:14.546Z,7.9
2018-12-16T06:37:16.077Z,7.9
2018-12-16T06:38:17.592Z,7.9
2018-12-16T06:39:19.117Z,7.9
2018-12-16T06:40:20.493Z,7.9
2018-12-16T06:41:21.876Z,7.9
2018-12-16T06:42:23.264Z,7.9
2018-12-16T06:43:24.785Z,7.9
2018-12-16T06:44:26.312Z,7.9
2018-12-16T06:45:27.522Z,7.9
2018-12-16T06:46:28.886Z,7.9
2018-12-16T06:47:30.273Z,7.9
2018-12-16T06:48:31.634Z,7.9
2018-12-16T06:49:33.004Z,7.9
2018-12-16T06:50:34.369Z,7.9
2018-12-16T06:51:35.752Z,7.9
2018-12-16T06:52:37.131Z,7.9
2018-12-16T06:53:38.513Z,7.8
2018-12-16T06:54:39.740Z,7.8
2018-12-16T06:55:44.747Z,7.8
2018-12-16T06:56:46.292Z,7.8
2018-12-16T06:57:47.646Z,7.8
2018-12-16T06:58:48.874Z,7.8
2018-12-16T06:59:50.430Z,7.8
2018-12-16T07:00:52.053Z,7.7
2018-12-16T07:01:53.584Z,7.7
2018-12-16T07:02:54.965Z,7.7
2018-12-16T07:03:56.362Z,7.7
2018-12-16T07:04:57.896Z,7.6
2018-12-16T07:06:00.156Z,7.6
2018-12-16T07:07:01.597Z,7.5
2018-12-16T07:08:02.868Z,7.5
2018-12-16T07:09:04.423Z,7.4
2018-12-16T07:10:05.867Z,7.4
2018-12-16T07:11:07.469Z,7.3
2018-12-16T07:12:09.032Z,7.3
2018-12-16T07:13:10.685Z,7.2
2018-12-16T07:14:12.289Z,7.2
2018-12-16T07:15:13.791Z,7.2
2018-12-16T07:16:15.406Z,7.2
2018-12-16T07:17:16.855Z,7.2
2018-12-16T07:18:18.357Z,7.3
2018-12-16T07:19:19.784Z,7.3
2018-12-16T07:20:21.381Z,7.5
2018-12-16T07:21:22.684Z,7.8
2018-12-16T07:22:24.236Z,7.9
2018-12-16T07:23:25.672Z,7.9
2018-12-16T07:24:27.117Z,7.9
2018-12-16T07:25:28.592Z,7.9
2018-12-16T07:26:29.732Z,7.9
2018-12-16T07:27:31.167Z,7.9
2018-12-16T07:28:32.812Z,7.6
2018-12-16T07:29:34.242Z,7.7
2018-12-16T07:30:35.934Z,7.7
2018-12-16T07:31:37.495Z,7.7
2018-12-16T07:32:39.084Z,7.7
2018-12-16T07:33:40.724Z,7.6
2018-12-16T07:34:42.558Z,7.6
2018-12-16T07:35:44.131Z,7.5
2018-12-16T07:36:45.553Z,7.5
2018-12-16T07:37:47.114Z,7.4
2018-12-16T07:38:48.419Z,7.3
2018-12-16T07:39:50.038Z,7.2
2018-12-16T07:40:53.054Z,7.2
2018-12-16T07:41:54.662Z,7.1
2018-12-16T07:42:56.232Z,7.2
2018-12-16T07:43:57.859Z,7.1
2018-12-16T07:44:59.490Z,7.1
2018-12-16T07:46:00.970Z,7.1
2018-12-16T07:47:02.573Z,7.1
2018-12-16T07:48:04.140Z,7.1
2018-12-16T07:49:05.823Z,7.1
2018-12-16T07:50:07.495Z,7.2
2018-12-16T07:51:09.102Z,7.1
2018-12-16T07:52:10.521Z,7.1
2018-12-16T07:53:12.103Z,7.2
2018-12-16T07:54:17.628Z,7.1
2018-12-16T07:55:19.256Z,7.1
2018-12-16T07:56:20.686Z,7.2
2018-12-16T07:57:22.410Z,7.2
2018-12-16T07:58:23.983Z,7.2
2018-12-16T07:59:25.408Z,7.2
2018-12-16T08:00:26.981Z,7.2
2018-12-16T08:01:28.607Z,7.2
2018-12-16T08:02:30.205Z,7.2
2018-12-16T08:03:31.742Z,7.2
2018-12-16T08:04:33.088Z,7.2
2018-12-16T08:05:34.711Z,7.2
2018-12-16T08:06:36.300Z,7.3
2018-12-16T08:07:37.921Z,7.3
2018-12-16T08:08:39.479Z,7.4
2018-12-16T08:09:40.933Z,7.4
2018-12-16T08:10:42.322Z,7.4
2018-12-16T08:11:43.866Z,7.5
2018-12-16T08:12:45.396Z,7.5
2018-12-16T08:13:46.773Z,7.6
2018-12-16T08:14:48.321Z,7.6
2018-12-16T08:15:49.884Z,7.7
2018-12-16T08:16:51.281Z,7.8
2018-12-16T08:17:52.840Z,7.8
2018-12-16T08:18:54.231Z,7.9
2018-12-16T08:19:55.792Z,7.9
2018-12-16T08:20:57.167Z,7.9
2018-12-16T08:21:58.728Z,7.9
2018-12-16T08:23:00.183Z,7.9
2018-12-16T08:24:01.547Z,7.9
2018-12-16T08:25:03.091Z,7.9
2018-12-16T08:26:04.183Z,7.8
2018-12-16T08:27:05.736Z,7.8
2018-12-16T08:28:07.292Z,7.8
2018-12-16T08:29:08.835Z,7.8
2018-12-16T08:30:10.434Z,7.8
2018-12-16T08:31:12.056Z,7.8
2018-12-16T08:32:13.297Z,7.7
2018-12-16T08:33:14.549Z,7.7
2018-12-16T08:34:16.096Z,7.6
2018-12-16T08:35:17.633Z,7.6
2018-12-16T08:36:19.192Z,7.5
2018-12-16T08:37:20.750Z,7.4
2018-12-16T08:38:22.312Z,7.3
2018-12-16T08:39:23.531Z,7.3
2018-12-16T08:40:24.969Z,7.2
2018-12-16T08:41:26.524Z,7.2
2018-12-16T08:42:28.102Z,7.2
2018-12-16T08:43:29.647Z,7.2
2018-12-16T08:44:31.022Z,7.2
2018-12-16T08:45:32.572Z,7.2
2018-12-16T08:46:34.127Z,7.2
2018-12-16T08:47:35.533Z,7.2
2018-12-16T08:48:36.932Z,7.2
2018-12-16T08:49:38.335Z,7.2
2018-12-16T08:50:39.910Z,7.3
2018-12-16T08:51:41.454Z,7.5
2018-12-16T08:52:42.950Z,7.7
2018-12-16T08:53:44.343Z,7.9
2018-12-16T08:54:45.750Z,7.9
2018-12-16T08:55:47.145Z,7.4
2018-12-16T08:56:48.725Z,7.9
2018-12-16T08:57:50.362Z,7.9
2018-12-16T08:58:51.901Z,7.9
2018-12-16T08:59:53.456Z,7.9
2018-12-16T09:00:54.993Z,7.9
2018-12-16T09:01:56.407Z,7.9
2018-12-16T09:02:57.635Z,7.9
2018-12-16T09:03:58.850Z,7.9
2018-12-16T09:05:00.247Z,7.8
2018-12-16T09:06:01.814Z,7.8
2018-12-16T09:07:03.201Z,7.6
2018-12-16T09:08:04.737Z,7.5
2018-12-16T09:09:06.335Z,7.4
2018-12-16T09:10:09.417Z,7.2
2018-12-16T09:11:10.816Z,7.2
2018-12-16T09:12:12.364Z,7.2
2018-12-16T09:13:13.597Z,7.2
2018-12-16T09:14:15.146Z,7.2
2018-12-16T09:15:16.674Z,7.2
2018-12-16T09:16:18.043Z,7.2
2018-12-16T09:17:19.482Z,7.2
2018-12-16T09:18:20.717Z,7.2
2018-12-16T09:19:22.125Z,7.2
2018-12-16T09:20:23.389Z,7.2
2018-12-16T09:21:24.935Z,7.1
2018-12-16T09:22:26.342Z,7.2
2018-12-16T09:23:27.756Z,7.1
2018-12-16T09:24:29.149Z,7.2
2018-12-16T09:25:30.723Z,7.2
2018-12-16T09:26:32.330Z,7.2
2018-12-16T09:27:33.822Z,7.2
2018-12-16T09:28:35.263Z,7.2
2018-12-16T09:29:36.673Z,7.2
2018-12-16T09:30:38.068Z,7.2
2018-12-16T09:31:39.603Z,7.2
2018-12-16T09:32:41.013Z,7.2
2018-12-16T09:33:42.578Z,7.1
2018-12-16T09:34:44.133Z,7.1
2018-12-16T09:35:45.725Z,7.2
2018-12-16T09:36:47.120Z,7.2
2018-12-16T09:37:48.813Z,7.2
2018-12-16T09:38:49.939Z,7.2
2018-12-16T09:39:51.482Z,7.2
2018-12-16T09:40:52.879Z,7.2
2018-12-16T09:41:54.282Z,7.2
2018-12-16T09:42:55.850Z,7.2
2018-12-16T09:43:57.227Z,7.2
2018-12-16T09:44:58.636Z,7.3
2018-12-16T09:45:59.901Z,7.3
2018-12-16T09:47:01.320Z,7.3
2018-12-16T09:48:03.101Z,7.3
2018-12-16T09:49:04.761Z,7.4
2018-12-16T09:50:06.223Z,7.4
2018-12-16T09:51:07.831Z,7.5
2018-12-16T09:52:09.365Z,7.5
2018-12-16T09:53:10.916Z,7.5
2018-12-16T09:54:12.393Z,7.6
2018-12-16T09:55:13.948Z,7.6
2018-12-16T09:56:15.385Z,7.7
2018-12-16T09:57:16.616Z,7.7
2018-12-16T09:58:18.014Z,7.7
2018-12-16T09:59:19.412Z,7.8
2018-12-16T10:00:20.811Z,7.8
2018-12-16T10:01:22.194Z,7.8
2018-12-16T10:02:23.462Z,7.9
2018-12-16T10:03:24.850Z,7.2
2018-12-16T10:04:26.234Z,7.3
2018-12-16T10:05:27.859Z,7.4
2018-12-16T10:06:29.338Z,7.5
2018-12-16T10:07:30.746Z,7.5
2018-12-16T10:08:32.293Z,7.6
2018-12-16T10:09:33.839Z,7.7
2018-12-16T10:10:35.232Z,7.7
2018-12-16T10:11:36.552Z,7.8
2018-12-16T10:12:38.093Z,7.8
2018-12-16T10:13:39.349Z,7.8
2018-12-16T10:14:40.921Z,7.9
2018-12-16T10:15:42.475Z,7.9
2018-12-16T10:16:43.876Z,7.9
2018-12-16T10:17:44.939Z,7.9
2018-12-16T10:18:46.201Z,7.9
2018-12-16T10:19:47.662Z,7.9
2018-12-16T10:20:49.192Z,7.8
2018-12-16T10:21:50.488Z,7.8
2018-12-16T10:22:52.043Z,7.8
2018-12-16T10:23:53.447Z,7.8
2018-12-16T10:24:54.835Z,7.8
2018-12-16T10:25:56.383Z,7.8
2018-12-16T10:26:57.774Z,7.8
2018-12-16T10:27:59.003Z,7.8
2018-12-16T10:29:00.261Z,7.8
2018-12-16T10:30:01.673Z,7.8
2018-12-16T10:31:03.066Z,7.8
2018-12-16T10:32:04.313Z,7.8
2018-12-16T10:33:05.872Z,7.8
2018-12-16T10:34:07.275Z,7.9
2018-12-16T10:35:08.699Z,7.9
2018-12-16T10:36:10.271Z,7.9
2018-12-16T10:37:11.515Z,7.9
2018-12-16T10:38:12.919Z,7.9
2018-12-16T10:39:14.455Z,7.9
2018-12-16T10:40:16.047Z,7.9
2018-12-16T10:41:17.606Z,7.9
2018-12-16T10:42:18.846Z,7.9
2018-12-16T10:43:20.248Z,7.9
2018-12-16T10:44:21.795Z,7.9
2018-12-16T10:45:23.239Z,7.8
2018-12-16T10:46:24.631Z,7.8
2018-12-16T10:47:26.183Z,7.8
2018-12-16T10:48:27.569Z,7.8
2018-12-16T10:49:29.388Z,7.8
2018-12-16T10:50:31.066Z,7.8
2018-12-16T10:51:32.622Z,7.8
2018-12-16T10:52:34.061Z,7.8
2018-12-16T10:53:37.249Z,7.7
2018-12-16T10:54:38.802Z,7.7
2018-12-16T10:55:40.062Z,7.6
2018-12-16T10:56:41.637Z,7.5
2018-12-16T10:57:43.204Z,7.4
2018-12-16T10:58:44.616Z,7.3
2018-12-16T10:59:46.106Z,7.2
2018-12-16T11:00:47.539Z,7.2
2018-12-16T11:01:49.086Z,7.2
2018-12-16T11:02:50.584Z,7.2
2018-12-16T11:03:52.004Z,7.2
2018-12-16T11:04:53.556Z,7.1
2018-12-16T11:05:55.115Z,7.2
2018-12-16T11:06:56.664Z,7.2
2018-12-16T11:07:57.921Z,7.2
2018-12-16T11:08:59.343Z,7.1
2018-12-16T11:10:00.836Z,7.2
2018-12-16T11:11:02.351Z,7.2
2018-12-16T11:12:03.616Z,7.2
2018-12-16T11:13:05.277Z,7.2
2018-12-16T11:14:06.936Z,7.2
2018-12-16T11:15:08.666Z,7.2
2018-12-16T11:16:10.302Z,7.2
2018-12-16T11:17:11.917Z,7.2
2018-12-16T11:18:13.186Z,7.3
2018-12-16T11:19:14.446Z,7.4
2018-12-16T11:20:16.563Z,7.7
2018-12-16T11:21:18.129Z,7.9
2018-12-16T11:22:19.557Z,7.9
2018-12-16T11:23:21.173Z,7.9
2018-12-16T11:24:22.717Z,7.9
2018-12-16T11:25:24.291Z,7.9
2018-12-16T11:26:25.860Z,7.9
2018-12-16T11:27:27.264Z,7.9
2018-12-16T11:28:28.908Z,7.9
2018-12-16T11:29:30.165Z,7.9
2018-12-16T11:30:31.755Z,7.2
2018-12-16T11:31:33.008Z,7.3
2018-12-16T11:32:34.253Z,7.4
2018-12-16T11:33:35.505Z,7.4
2018-12-16T11:34:36.999Z,7.5
2018-12-16T11:35:38.421Z,7.5
2018-12-16T11:36:39.856Z,7.6
2018-12-16T11:37:41.254Z,7.6
2018-12-16T11:38:42.842Z,7.7
2018-12-16T11:39:44.407Z,7.7
2018-12-16T11:40:46.009Z,7.7
2018-12-16T11:41:47.643Z,7.7
2018-12-16T11:42:49.081Z,7.7
2018-12-16T11:43:50.327Z,7.8
2018-12-16T11:44:51.775Z,7.8
2018-12-16T11:45:53.208Z,7.8
2018-12-16T11:46:54.787Z,7.8
2018-12-16T11:47:56.375Z,7.8
2018-12-16T11:48:57.836Z,7.2
2018-12-16T11:49:59.277Z,7.3
2018-12-16T11:51:00.829Z,7.3
2018-12-16T11:52:02.345Z,7.3
2018-12-16T11:53:03.747Z,7.4
2018-12-16T11:54:05.342Z,7.4
2018-12-16T11:55:14.384Z,7.4
2018-12-16T11:56:15.975Z,7.4
2018-12-16T11:57:17.561Z,7.4
2018-12-16T11:58:19.134Z,7.4
2018-12-16T11:59:20.908Z,7.4
2018-12-16T12:00:22.380Z,7.4
2018-12-16T12:01:23.790Z,7.5
2018-12-16T12:02:25.241Z,7.5
2018-12-16T12:03:26.807Z,7.5
2018-12-16T12:04:28.464Z,7.5
2018-12-16T12:05:29.868Z,7.6
2018-12-16T12:06:31.690Z,7.6
2018-12-16T12:07:33.079Z,7.6
2018-12-16T12:08:34.534Z,7.6
2018-12-16T12:09:35.941Z,7.7
2018-12-16T12:10:37.394Z,7.7
2018-12-16T12:11:39.027Z,7.7
2018-12-16T12:12:40.574Z,7.7
2018-12-16T12:13:41.976Z,7.7
2018-12-16T12:14:43.396Z,7.8
2018-12-16T12:15:44.784Z,7.8
2018-12-16T12:16:46.190Z,7.8
2018-12-16T12:17:47.612Z,7.8
2018-12-16T12:18:49.153Z,7.8
2018-12-16T12:19:50.573Z,7.8
2018-12-16T12:20:51.644Z,7.8
2018-12-16T12:21:53.050Z,7.8
2018-12-16T12:22:54.603Z,7.7
2018-12-16T12:23:56.070Z,7.7
2018-12-16T12:24:57.642Z,7.7
2018-12-16T12:25:58.991Z,7.7
2018-12-16T12:27:00.566Z,7.7
2018-12-16T12:28:02.126Z,7.7
2018-12-16T12:29:03.705Z,7.6
2018-12-16T12:30:05.275Z,7.5
2018-12-16T12:31:06.833Z,7.4
2018-12-16T12:32:08.386Z,7.3
2018-12-16T12:33:09.945Z,7.2
2018-12-16T12:34:11.493Z,7.2
2018-12-16T12:35:13.059Z,7.2
2018-12-16T12:36:14.476Z,7.2
2018-12-16T12:37:16.039Z,7.2
2018-12-16T12:38:17.481Z,7.2
2018-12-16T12:39:19.050Z,7.2
2018-12-16T12:40:20.269Z,7.2
2018-12-16T12:41:21.902Z,7.2
2018-12-16T12:42:23.467Z,7.2
2018-12-16T12:43:26.582Z,7.2
2018-12-16T12:44:27.980Z,7.2
2018-12-16T12:45:29.548Z,7.1
2018-12-16T12:46:30.871Z,7.2
2018-12-16T12:47:32.559Z,7.2
2018-12-16T12:48:33.801Z,7.2
2018-12-16T12:49:35.404Z,7.2
2018-12-16T12:50:36.969Z,7.2
2018-12-16T12:51:38.375Z,7.2
2018-12-16T12:52:40.287Z,7.3
2018-12-16T12:53:41.688Z,7.3
2018-12-16T12:54:43.146Z,7.4
2018-12-16T12:55:44.536Z,7.4
2018-12-16T12:56:46.117Z,7.5
2018-12-16T12:57:47.684Z,7.6
2018-12-16T12:58:49.435Z,7.7
2018-12-16T12:59:50.788Z,7.7
2018-12-16T13:00:52.356Z,7.7
2018-12-16T13:01:53.904Z,7.7
2018-12-16T13:02:55.278Z,7.7
2018-12-16T13:03:56.841Z,7.7
2018-12-16T13:04:58.246Z,7.7
2018-12-16T13:05:59.646Z,7.7
2018-12-16T13:07:01.240Z,7.7
2018-12-16T13:08:02.807Z,7.8
2018-12-16T13:09:04.384Z,7.9
2018-12-16T13:10:05.622Z,7.9
2018-12-16T13:11:07.013Z,7.9
2018-12-16T13:12:08.414Z,7.9
2018-12-16T13:13:09.824Z,7.9
2018-12-16T13:14:11.368Z,7.9
2018-12-16T13:15:12.771Z,7.9
2018-12-16T13:16:14.146Z,7.3
2018-12-16T13:17:15.665Z,7.6
2018-12-16T13:18:17.041Z,7.9
2018-12-16T13:19:18.594Z,7.9
2018-12-16T13:20:20.134Z,7.9
2018-12-16T13:21:21.684Z,7.9
2018-12-16T13:22:23.248Z,7.9
2018-12-16T13:23:24.648Z,7.9
2018-12-16T13:24:26.054Z,7.9
2018-12-16T13:25:36.353Z,7.2
2018-12-16T13:26:37.901Z,7.4
2018-12-16T13:27:39.357Z,7.4
2018-12-16T13:28:40.923Z,7.5
2018-12-16T13:29:42.487Z,7.6
2018-12-16T13:30:44.024Z,7.6
2018-12-16T13:31:45.563Z,7.7
2018-12-16T13:32:47.114Z,7.7
2018-12-16T13:33:48.580Z,7.8
2018-12-16T13:34:50.011Z,7.8
2018-12-16T13:35:51.399Z,7.8
2018-12-16T13:36:52.815Z,7.8
2018-12-16T13:37:54.410Z,7.8
2018-12-16T13:38:55.974Z,7.9
2018-12-16T13:39:57.543Z,7.9
2018-12-16T13:40:58.927Z,7.9
2018-12-16T13:42:00.478Z,7.9
2018-12-16T13:43:02.025Z,7.9
2018-12-16T13:44:03.571Z,7.8
2018-12-16T13:45:04.958Z,7.8
2018-12-16T13:46:06.044Z,7.8
2018-12-16T13:47:07.642Z,7.8
2018-12-16T13:48:09.044Z,7.8
2018-12-16T13:49:10.446Z,7.8
2018-12-16T13:50:12.028Z,7.8
2018-12-16T13:51:13.454Z,7.8
2018-12-16T13:52:14.859Z,7.7
2018-12-16T13:53:16.154Z,7.8
2018-12-16T13:54:17.545Z,7.8
2018-12-16T13:55:19.176Z,7.8
2018-12-16T13:56:20.766Z,7.8
2018-12-16T13:57:22.346Z,7.8
2018-12-16T13:58:23.921Z,7.8
2018-12-16T13:59:25.466Z,7.7
2018-12-16T14:00:27.024Z,7.6
2018-12-16T14:01:28.409Z,7.6
2018-12-16T14:02:29.941Z,7.4
2018-12-16T14:03:31.337Z,7.3
2018-12-16T14:04:32.722Z,7.2
2018-12-16T14:05:34.276Z,7.2
2018-12-16T14:06:35.855Z,7.2
2018-12-16T14:07:37.267Z,7.2